Main page
METAR-TAF:

METAR-TAF

Airports :

Teesside International Airport

Durham, England

latitude: 54-31N, longitude: 001-25W, elevation: 37 m

Current weather observation

The report was made 33 minutes ago, at 05:20 UTC
Wind 9 kt from the South
Temperature 14°C
Humidity 94%
Pressure 1008 hPa
Visibility: 9000 m
Scattered clouds at a height of 2000 ft

METAR: EGNV 190520Z 18009KT 9000 SCT020 14/13 Q1008

Time: 06:53 (05:53 UTC)

Forecast

The report was made 12 hours and 50 minutes ago, at 17:03 UTC
Forecast valid from 18 at 18 UTC to 18 at 21 UTC
Wind 10 kt from the South
Visibility 10 km or more
Scattered clouds at a height of 800 ft
Broken clouds at a height of 2000 ft
Temporary
from 18 at 18 UTC to 18 at 21 UTC
Visibility: 6000 m
Broken clouds at a height of 800 ft

TAF: EGNV 181703Z 1818/1821 18010KT 9999 SCT008 BKN020 TEMPO 1818/1821 6000 BKN008

Weather observations and forecasts of more than 4000 airports (METAR and TAF reports).

The available stations are represented by yellow and red dots on the map.

Hover mouse over dot to see the name of the station.

Then click to see weather observations and forecasts.

To change the map : click on the green buttons with a black cross to zoom in, on the green button with a dash to zoom out, or on the green arrows for adjacent maps.


METAR-TAF: